sensor_id;sensor_type;location;lat;lon;timestamp;pressure;altitude;pressure_sealevel;temperature;humidity
27984;BME280;15317;50.360;8.726;2022-09-27T00:02:26;97479.91;;;9.59;100.00
27984;BME280;15317;50.360;8.726;2022-09-27T00:06:30;97473.88;;;9.63;100.00
27984;BME280;15317;50.360;8.726;2022-09-27T00:10:33;97478.25;;;9.64;100.00
27984;BME280;15317;50.360;8.726;2022-09-27T00:14:35;97476.59;;;9.63;100.00
27984;BME280;15317;50.360;8.726;2022-09-27T00:18:37;97471.81;;;9.65;100.00
27984;BME280;15317;50.360;8.726;2022-09-27T00:22:40;97464.72;;;9.64;100.00
27984;BME280;15317;50.360;8.726;2022-09-27T00:26:43;97464.50;;;9.66;100.00
27984;BME280;15317;50.360;8.726;2022-09-27T00:30:46;97459.28;;;9.64;100.00
27984;BME280;15317;50.360;8.726;2022-09-27T00:34:48;97458.44;;;9.64;100.00
27984;BME280;15317;50.360;8.726;2022-09-27T00:38:51;97452.19;;;9.63;100.00
27984;BME280;15317;50.360;8.726;2022-09-27T00:42:54;97457.84;;;9.62;100.00
27984;BME280;15317;50.360;8.726;2022-09-27T00:46:59;97444.50;;;9.60;100.00
27984;BME280;15317;50.360;8.726;2022-09-27T00:51:03;97441.56;;;9.62;100.00
27984;BME280;15317;50.360;8.726;2022-09-27T00:55:12;97442.38;;;9.62;100.00
27984;BME280;15317;50.360;8.726;2022-09-27T00:59:21;97435.09;;;9.63;100.00
27984;BME280;15317;50.360;8.726;2022-09-27T01:03:30;97438.63;;;9.63;100.00
27984;BME280;15317;50.360;8.726;2022-09-27T01:07:35;97434.47;;;9.61;100.00
27984;BME280;15317;50.360;8.726;2022-09-27T01:11:42;97434.88;;;9.58;100.00
27984;BME280;15317;50.360;8.726;2022-09-27T01:15:52;97436.75;;;9.57;100.00
27984;BME280;15317;50.360;8.726;2022-09-27T01:24:53;97439.88;;;9.54;100.00
27984;BME280;15317;50.360;8.726;2022-09-27T01:29:03;97432.16;;;9.51;100.00
27984;BME280;15317;50.360;8.726;2022-09-27T01:33:16;97430.06;;;9.46;100.00
27984;BME280;15317;50.360;8.726;2022-09-27T01:37:25;97432.56;;;9.48;100.00
27984;BME280;15317;50.360;8.726;2022-09-27T01:41:34;97426.91;;;9.43;100.00
27984;BME280;15317;50.360;8.726;2022-09-27T01:45:42;97419.03;;;9.48;100.00
27984;BME280;15317;50.360;8.726;2022-09-27T01:49:53;97427.75;;;9.50;100.00
27984;BME280;15317;50.360;8.726;2022-09-27T01:54:00;97421.09;;;9.46;100.00
27984;BME280;15317;50.360;8.726;2022-09-27T01:58:06;97421.72;;;9.48;100.00
27984;BME280;15317;50.360;8.726;2022-09-27T02:02:10;97417.94;;;9.49;100.00
27984;BME280;15317;50.360;8.726;2022-09-27T02:06:17;97424.22;;;9.49;100.00
27984;BME280;15317;50.360;8.726;2022-09-27T02:10:22;97425.25;;;9.48;100.00
27984;BME280;15317;50.360;8.726;2022-09-27T02:14:29;97425.25;;;9.48;100.00
27984;BME280;15317;50.360;8.726;2022-09-27T02:18:41;97425.88;;;9.50;100.00
27984;BME280;15317;50.360;8.726;2022-09-27T02:22:52;97426.91;;;9.49;100.00
27984;BME280;15317;50.360;8.726;2022-09-27T02:26:59;97424.66;;;9.53;100.00
27984;BME280;15317;50.360;8.726;2022-09-27T02:31:02;97434.47;;;9.54;100.00
27984;BME280;15317;50.360;8.726;2022-09-27T02:35:09;97432.34;;;9.49;100.00
27984;BME280;15317;50.360;8.726;2022-09-27T02:39:14;97422.97;;;9.52;100.00
27984;BME280;15317;50.360;8.726;2022-09-27T02:43:18;97428.22;;;9.54;100.00
27984;BME280;15317;50.360;8.726;2022-09-27T02:47:34;97432.16;;;9.51;100.00
27984;BME280;15317;50.360;8.726;2022-09-27T02:51:46;97441.09;;;9.45;100.00
27984;BME280;15317;50.360;8.726;2022-09-27T02:56:00;97447.75;;;9.49;100.00
27984;BME280;15317;50.360;8.726;2022-09-27T03:00:06;97455.28;;;9.47;100.00
27984;BME280;15317;50.360;8.726;2022-09-27T03:04:15;97451.09;;;9.44;100.00
27984;BME280;15317;50.360;8.726;2022-09-27T03:08:18;97457.53;;;9.43;100.00
27984;BME280;15317;50.360;8.726;2022-09-27T03:12:22;97452.75;;;9.45;100.00
27984;BME280;15317;50.360;8.726;2022-09-27T03:16:26;97459.84;;;9.46;100.00
27984;BME280;15317;50.360;8.726;2022-09-27T03:20:28;97461.09;;;9.44;100.00
27984;BME280;15317;50.360;8.726;2022-09-27T03:24:31;97464.81;;;9.43;100.00
27984;BME280;15317;50.360;8.726;2022-09-27T03:28:34;97472.13;;;9.42;100.00
27984;BME280;15317;50.360;8.726;2022-09-27T03:32:36;97478.38;;;9.43;100.00
27984;BME280;15317;50.360;8.726;2022-09-27T03:36:38;97477.75;;;9.41;100.00
27984;BME280;15317;50.360;8.726;2022-09-27T03:40:40;97481.50;;;9.40;100.00
27984;BME280;15317;50.360;8.726;2022-09-27T03:44:44;97476.44;;;9.30;100.00
27984;BME280;15317;50.360;8.726;2022-09-27T03:48:46;97478.09;;;9.25;100.00
27984;BME280;15317;50.360;8.726;2022-09-27T03:52:48;97484.53;;;9.24;100.00
27984;BME280;15317;50.360;8.726;2022-09-27T03:56:50;97477.41;;;9.16;100.00
27984;BME280;15317;50.360;8.726;2022-09-27T04:00:54;97477.00;;;9.13;100.00
27984;BME280;15317;50.360;8.726;2022-09-27T04:04:56;97478.22;;;9.10;100.00
27984;BME280;15317;50.360;8.726;2022-09-27T04:08:58;97487.59;;;9.07;100.00
27984;BME280;15317;50.360;8.726;2022-09-27T04:13:00;97488.34;;;9.01;100.00
27984;BME280;15317;50.360;8.726;2022-09-27T04:17:03;97485.03;;;8.99;100.00
27984;BME280;15317;50.360;8.726;2022-09-27T04:21:05;97482.09;;;9.01;100.00
27984;BME280;15317;50.360;8.726;2022-09-27T04:25:08;97494.59;;;9.02;100.00
27984;BME280;15317;50.360;8.726;2022-09-27T04:29:10;97500.25;;;9.00;100.00
27984;BME280;15317;50.360;8.726;2022-09-27T04:33:14;97493.34;;;8.98;100.00
27984;BME280;15317;50.360;8.726;2022-09-27T04:37:16;97508.75;;;8.97;100.00
27984;BME280;15317;50.360;8.726;2022-09-27T04:41:18;97515.66;;;9.00;100.00
27984;BME280;15317;50.360;8.726;2022-09-27T04:45:21;97523.72;;;8.93;100.00
27984;BME280;15317;50.360;8.726;2022-09-27T04:49:24;97532.69;;;8.94;100.00
27984;BME280;15317;50.360;8.726;2022-09-27T04:53:26;97536.19;;;8.94;100.00
27984;BME280;15317;50.360;8.726;2022-09-27T04:57:29;97545.56;;;8.92;100.00
27984;BME280;15317;50.360;8.726;2022-09-27T05:01:31;97539.69;;;8.88;100.00
27984;BME280;15317;50.360;8.726;2022-09-27T05:05:35;97554.53;;;8.92;100.00
27984;BME280;15317;50.360;8.726;2022-09-27T05:09:37;97555.56;;;8.91;100.00
27984;BME280;15317;50.360;8.726;2022-09-27T05:13:39;97557.47;;;8.97;100.00
27984;BME280;15317;50.360;8.726;2022-09-27T05:17:41;97561.56;;;8.87;100.00
27984;BME280;15317;50.360;8.726;2022-09-27T05:21:45;97568.63;;;8.88;100.00
27984;BME280;15317;50.360;8.726;2022-09-27T05:25:47;97565.09;;;8.87;100.00
27984;BME280;15317;50.360;8.726;2022-09-27T05:29:49;97575.31;;;8.85;100.00
27984;BME280;15317;50.360;8.726;2022-09-27T05:33:51;97580.06;;;8.83;100.00
27984;BME280;15317;50.360;8.726;2022-09-27T05:37:57;97575.31;;;8.85;100.00
27984;BME280;15317;50.360;8.726;2022-09-27T05:41:59;97587.28;;;8.76;100.00
27984;BME280;15317;50.360;8.726;2022-09-27T05:46:04;97592.69;;;8.76;100.00
27984;BME280;15317;50.360;8.726;2022-09-27T05:50:07;97588.31;;;8.75;100.00
27984;BME280;15317;50.360;8.726;2022-09-27T05:54:10;97600.38;;;8.73;100.00
27984;BME280;15317;50.360;8.726;2022-09-27T05:58:12;97607.91;;;8.77;100.00
27984;BME280;15317;50.360;8.726;2022-09-27T06:02:15;97614.41;;;8.83;100.00
27984;BME280;15317;50.360;8.726;2022-09-27T06:06:18;97612.78;;;8.88;100.00
27984;BME280;15317;50.360;8.726;2022-09-27T06:10:21;97618.63;;;8.85;100.00
27984;BME280;15317;50.360;8.726;2022-09-27T06:14:23;97622.59;;;8.89;100.00
27984;BME280;15317;50.360;8.726;2022-09-27T06:18:26;97622.78;;;8.88;100.00
27984;BME280;15317;50.360;8.726;2022-09-27T06:22:28;97630.97;;;8.94;100.00
27984;BME280;15317;50.360;8.726;2022-09-27T06:26:31;97636.31;;;8.88;100.00
27984;BME280;15317;50.360;8.726;2022-09-27T06:30:37;97642.44;;;8.96;100.00
27984;BME280;15317;50.360;8.726;2022-09-27T06:34:39;97638.72;;;8.97;100.00
27984;BME280;15317;50.360;8.726;2022-09-27T06:38:41;97650.38;;;8.98;100.00
27984;BME280;15317;50.360;8.726;2022-09-27T06:42:47;97654.06;;;8.90;100.00
27984;BME280;15317;50.360;8.726;2022-09-27T06:46:50;97660.44;;;9.04;100.00
27984;BME280;15317;50.360;8.726;2022-09-27T06:50:52;97658.50;;;8.98;100.00
27984;BME280;15317;50.360;8.726;2022-09-27T06:54:57;97670.53;;;8.95;100.00
27984;BME280;15317;50.360;8.726;2022-09-27T06:59:01;97681.66;;;9.00;100.00
27984;BME280;15317;50.360;8.726;2022-09-27T07:03:23;97688.47;;;9.18;100.00
27984;BME280;15317;50.360;8.726;2022-09-27T07:07:32;97705.50;;;9.11;100.00
27984;BME280;15317;50.360;8.726;2022-09-27T07:11:35;97720.06;;;9.10;100.00
27984;BME280;15317;50.360;8.726;2022-09-27T07:15:40;97718.38;;;9.09;100.00
27984;BME280;15317;50.360;8.726;2022-09-27T07:19:42;97722.91;;;9.02;100.00
27984;BME280;15317;50.360;8.726;2022-09-27T07:23:44;97736.06;;;9.05;100.00
27984;BME280;15317;50.360;8.726;2022-09-27T07:27:46;97729.91;;;8.97;100.00
27984;BME280;15317;50.360;8.726;2022-09-27T07:31:49;97731.19;;;9.01;100.00
27984;BME280;15317;50.360;8.726;2022-09-27T07:35:52;97731.16;;;9.16;100.00
27984;BME280;15317;50.360;8.726;2022-09-27T07:39:56;97730.00;;;9.25;100.00
27984;BME280;15317;50.360;8.726;2022-09-27T07:43:58;97736.69;;;9.29;100.00
27984;BME280;15317;50.360;8.726;2022-09-27T07:48:04;97737.16;;;9.32;100.00
27984;BME280;15317;50.360;8.726;2022-09-27T07:52:06;97752.94;;;9.50;100.00
27984;BME280;15317;50.360;8.726;2022-09-27T07:56:08;97762.38;;;9.54;100.00
27984;BME280;15317;50.360;8.726;2022-09-27T08:00:12;97762.47;;;9.67;100.00
27984;BME280;15317;50.360;8.726;2022-09-27T08:04:16;97782.59;;;9.58;100.00
27984;BME280;15317;50.360;8.726;2022-09-27T08:08:18;97778.09;;;9.65;100.00
27984;BME280;15317;50.360;8.726;2022-09-27T08:12:21;97786.56;;;9.83;100.00
27984;BME280;15317;50.360;8.726;2022-09-27T08:16:23;97796.28;;;9.99;100.00
27984;BME280;15317;50.360;8.726;2022-09-27T08:20:26;97799.28;;;10.11;100.00
27984;BME280;15317;50.360;8.726;2022-09-27T08:24:28;97806.00;;;10.15;100.00
27984;BME280;15317;50.360;8.726;2022-09-27T08:28:30;97809.00;;;10.20;100.00
27984;BME280;15317;50.360;8.726;2022-09-27T08:32:33;97820.38;;;10.09;100.00
27984;BME280;15317;50.360;8.726;2022-09-27T08:36:37;97820.41;;;10.15;100.00
27984;BME280;15317;50.360;8.726;2022-09-27T08:40:48;97826.81;;;10.08;100.00
27984;BME280;15317;50.360;8.726;2022-09-27T08:44:55;97829.56;;;9.86;100.00
27984;BME280;15317;50.360;8.726;2022-09-27T08:49:04;97831.19;;;9.81;100.00
27984;BME280;15317;50.360;8.726;2022-09-27T08:53:17;97842.28;;;9.86;100.00
27984;BME280;15317;50.360;8.726;2022-09-27T08:57:21;97841.63;;;9.84;100.00
27984;BME280;15317;50.360;8.726;2022-09-27T09:01:25;97844.47;;;9.76;100.00
27984;BME280;15317;50.360;8.726;2022-09-27T09:05:29;97837.28;;;9.89;100.00
27984;BME280;15317;50.360;8.726;2022-09-27T09:09:40;97845.22;;;10.12;100.00
27984;BME280;15317;50.360;8.726;2022-09-27T09:13:59;97845.25;;;10.40;100.00
27984;BME280;15317;50.360;8.726;2022-09-27T09:18:24;97847.06;;;10.67;100.00
27984;BME280;15317;50.360;8.726;2022-09-27T09:22:39;97841.53;;;10.89;100.00
27984;BME280;15317;50.360;8.726;2022-09-27T09:26:54;97840.88;;;11.41;100.00
27984;BME280;15317;50.360;8.726;2022-09-27T09:31:05;97856.22;;;11.62;100.00
27984;BME280;15317;50.360;8.726;2022-09-27T09:35:13;97862.63;;;11.34;100.00
27984;BME280;15317;50.360;8.726;2022-09-27T09:39:19;97849.50;;;11.44;100.00
27984;BME280;15317;50.360;8.726;2022-09-27T09:43:29;97855.22;;;11.08;99.42
27984;BME280;15317;50.360;8.726;2022-09-27T09:47:36;97851.91;;;11.26;100.00
27984;BME280;15317;50.360;8.726;2022-09-27T09:51:43;97842.28;;;11.17;100.00
27984;BME280;15317;50.360;8.726;2022-09-27T09:55:51;97845.94;;;10.90;100.00
27984;BME280;15317;50.360;8.726;2022-09-27T10:00:00;97832.72;;;10.80;100.00
27984;BME280;15317;50.360;8.726;2022-09-27T10:04:03;97839.06;;;10.94;100.00
27984;BME280;15317;50.360;8.726;2022-09-27T10:08:06;97842.81;;;10.93;100.00
27984;BME280;15317;50.360;8.726;2022-09-27T10:12:13;97846.63;;;10.98;100.00
27984;BME280;15317;50.360;8.726;2022-09-27T10:16:20;97840.63;;;11.16;100.00
27984;BME280;15317;50.360;8.726;2022-09-27T10:20:30;97844.38;;;11.15;100.00
27984;BME280;15317;50.360;8.726;2022-09-27T10:24:52;97831.22;;;11.19;100.00
27984;BME280;15317;50.360;8.726;2022-09-27T10:28:54;97830.00;;;11.34;100.00
27984;BME280;15317;50.360;8.726;2022-09-27T10:33:02;97826.09;;;11.57;100.00
27984;BME280;15317;50.360;8.726;2022-09-27T10:37:13;97825.91;;;11.65;100.00
27984;BME280;15317;50.360;8.726;2022-09-27T10:41:23;97827.16;;;11.69;100.00
27984;BME280;15317;50.360;8.726;2022-09-27T10:45:28;97827.59;;;11.72;99.51
27984;BME280;15317;50.360;8.726;2022-09-27T10:49:34;97827.19;;;11.75;98.63
27984;BME280;15317;50.360;8.726;2022-09-27T10:53:43;97821.75;;;11.82;98.18
27984;BME280;15317;50.360;8.726;2022-09-27T10:57:48;97827.13;;;11.62;94.68
27984;BME280;15317;50.360;8.726;2022-09-27T11:01:51;97824.59;;;11.54;99.18
27984;BME280;15317;50.360;8.726;2022-09-27T11:05:55;97812.16;;;11.79;98.59
27984;BME280;15317;50.360;8.726;2022-09-27T11:09:59;97821.94;;;11.74;96.90
27984;BME280;15317;50.360;8.726;2022-09-27T11:14:04;97808.94;;;11.63;95.30
27984;BME280;15317;50.360;8.726;2022-09-27T11:18:13;97819.88;;;11.82;94.44
27984;BME280;15317;50.360;8.726;2022-09-27T11:22:31;97819.66;;;12.23;96.75
27984;BME280;15317;50.360;8.726;2022-09-27T11:26:43;97814.19;;;12.37;94.45
27984;BME280;15317;50.360;8.726;2022-09-27T11:30:54;97817.34;;;12.34;97.71
27984;BME280;15317;50.360;8.726;2022-09-27T11:35:14;97802.50;;;12.03;100.00
27984;BME280;15317;50.360;8.726;2022-09-27T11:39:28;97797.47;;;12.13;100.00
27984;BME280;15317;50.360;8.726;2022-09-27T11:43:42;97792.84;;;12.34;100.00
27984;BME280;15317;50.360;8.726;2022-09-27T11:47:57;97787.78;;;12.50;98.74
27984;BME280;15317;50.360;8.726;2022-09-27T11:52:21;97790.81;;;12.87;97.59
27984;BME280;15317;50.360;8.726;2022-09-27T11:56:37;97781.97;;;12.91;93.08
27984;BME280;15317;50.360;8.726;2022-09-27T12:00:52;97783.53;;;12.74;90.28
27984;BME280;15317;50.360;8.726;2022-09-27T12:05:13;97787.78;;;12.50;93.18
27984;BME280;15317;50.360;8.726;2022-09-27T12:09:22;97776.09;;;12.23;92.60
27984;BME280;15317;50.360;8.726;2022-09-27T12:13:35;97774.47;;;11.83;100.00
27984;BME280;15317;50.360;8.726;2022-09-27T12:17:43;97777.81;;;11.85;98.96
27984;BME280;15317;50.360;8.726;2022-09-27T12:21:46;97781.16;;;12.20;100.00
27984;BME280;15317;50.360;8.726;2022-09-27T12:25:51;97774.00;;;12.25;100.00
27984;BME280;15317;50.360;8.726;2022-09-27T12:29:56;97776.53;;;11.74;97.60
27984;BME280;15317;50.360;8.726;2022-09-27T12:34:05;97767.97;;;11.84;99.28
27984;BME280;15317;50.360;8.726;2022-09-27T12:38:14;97771.31;;;12.06;98.11
27984;BME280;15317;50.360;8.726;2022-09-27T12:42:21;97767.34;;;11.95;94.01
27984;BME280;15317;50.360;8.726;2022-09-27T12:46:35;97756.81;;;12.32;94.47
27984;BME280;15317;50.360;8.726;2022-09-27T12:50:43;97764.31;;;12.43;93.37
27984;BME280;15317;50.360;8.726;2022-09-27T12:59:38;97754.69;;;12.47;92.13
27984;BME280;15317;50.360;8.726;2022-09-27T13:08:56;97760.00;;;12.86;94.12
27984;BME280;15317;50.360;8.726;2022-09-27T13:13:03;97759.09;;;12.99;95.39
27984;BME280;15317;50.360;8.726;2022-09-27T13:17:30;97751.41;;;12.89;92.05
27984;BME280;15317;50.360;8.726;2022-09-27T13:21:53;97746.38;;;12.86;91.95
27984;BME280;15317;50.360;8.726;2022-09-27T13:25:57;97749.72;;;12.88;89.98
27984;BME280;15317;50.360;8.726;2022-09-27T13:34:52;97746.63;;;12.78;84.58
27984;BME280;15317;50.360;8.726;2022-09-27T13:39:17;97751.50;;;12.56;82.39
27984;BME280;15317;50.360;8.726;2022-09-27T13:43:47;97752.13;;;12.58;85.63
27984;BME280;15317;50.360;8.726;2022-09-27T13:47:54;97763.81;;;12.72;84.53
27984;BME280;15317;50.360;8.726;2022-09-27T13:52:01;97765.00;;;12.96;81.52
27984;BME280;15317;50.360;8.726;2022-09-27T13:56:04;97758.63;;;13.09;81.83
27984;BME280;15317;50.360;8.726;2022-09-27T14:00:12;97750.47;;;13.09;77.92
27984;BME280;15317;50.360;8.726;2022-09-27T14:04:17;97752.34;;;13.08;78.08
27984;BME280;15317;50.360;8.726;2022-09-27T14:08:26;97748.94;;;13.19;80.66
27984;BME280;15317;50.360;8.726;2022-09-27T14:12:31;97754.47;;;12.99;79.43
27984;BME280;15317;50.360;8.726;2022-09-27T14:16:41;97754.88;;;13.10;80.00
27984;BME280;15317;50.360;8.726;2022-09-27T14:20:45;97751.00;;;13.24;78.45
27984;BME280;15317;50.360;8.726;2022-09-27T14:24:49;97756.63;;;13.35;79.13
27984;BME280;15317;50.360;8.726;2022-09-27T14:28:52;97750.06;;;13.43;79.67
27984;BME280;15317;50.360;8.726;2022-09-27T14:32:56;97754.72;;;13.36;79.60
27984;BME280;15317;50.360;8.726;2022-09-27T14:37:01;97737.75;;;13.34;80.69
27984;BME280;15317;50.360;8.726;2022-09-27T14:41:22;97746.06;;;13.07;79.10
27984;BME280;15317;50.360;8.726;2022-09-27T14:45:26;97750.25;;;13.17;82.62
27984;BME280;15317;50.360;8.726;2022-09-27T14:49:32;97752.50;;;13.20;82.01
27984;BME280;15317;50.360;8.726;2022-09-27T14:53:39;97758.38;;;13.23;82.01
27984;BME280;15317;50.360;8.726;2022-09-27T14:57:44;97759.47;;;13.16;81.11
27984;BME280;15317;50.360;8.726;2022-09-27T15:01:48;97755.28;;;13.06;79.47
27984;BME280;15317;50.360;8.726;2022-09-27T15:05:52;97754.13;;;12.89;78.77
27984;BME280;15317;50.360;8.726;2022-09-27T15:09:55;97747.84;;;12.89;80.17
27984;BME280;15317;50.360;8.726;2022-09-27T15:13:59;97756.63;;;12.91;80.15
27984;BME280;15317;50.360;8.726;2022-09-27T15:18:28;97753.69;;;12.92;79.00
27984;BME280;15317;50.360;8.726;2022-09-27T15:22:41;97764.53;;;12.99;82.30
27984;BME280;15317;50.360;8.726;2022-09-27T15:26:45;97756.25;;;12.81;79.03
27984;BME280;15317;50.360;8.726;2022-09-27T15:30:52;97766.13;;;12.75;81.10
27984;BME280;15317;50.360;8.726;2022-09-27T15:34:55;97762.41;;;12.56;80.32
27984;BME280;15317;50.360;8.726;2022-09-27T15:39:06;97759.09;;;12.48;80.52
27984;BME280;15317;50.360;8.726;2022-09-27T15:43:19;97768.28;;;12.53;81.71
27984;BME280;15317;50.360;8.726;2022-09-27T15:47:38;97768.91;;;12.49;84.47
27984;BME280;15317;50.360;8.726;2022-09-27T15:51:42;97764.09;;;12.51;84.21
27984;BME280;15317;50.360;8.726;2022-09-27T15:55:46;97764.78;;;12.40;85.01
27984;BME280;15317;50.360;8.726;2022-09-27T15:59:49;97769.41;;;12.33;86.60
27984;BME280;15317;50.360;8.726;2022-09-27T16:03:51;97774.41;;;12.22;87.77
27984;BME280;15317;50.360;8.726;2022-09-27T16:07:52;97780.53;;;12.11;88.01
27984;BME280;15317;50.360;8.726;2022-09-27T16:11:56;97777.38;;;12.01;87.81
27984;BME280;15317;50.360;8.726;2022-09-27T16:15:58;97773.63;;;11.89;90.86
27984;BME280;15317;50.360;8.726;2022-09-27T16:20:01;97783.25;;;11.85;92.16
27984;BME280;15317;50.360;8.726;2022-09-27T16:24:03;97788.06;;;11.83;93.63
27984;BME280;15317;50.360;8.726;2022-09-27T16:28:06;97793.91;;;11.67;93.40
27984;BME280;15317;50.360;8.726;2022-09-27T16:32:09;97795.53;;;11.41;97.28
27984;BME280;15317;50.360;8.726;2022-09-27T16:36:11;97789.81;;;11.10;100.00
27984;BME280;15317;50.360;8.726;2022-09-27T16:40:18;97788.13;;;11.02;100.00
27984;BME280;15317;50.360;8.726;2022-09-27T16:44:22;97808.13;;;10.95;100.00
27984;BME280;15317;50.360;8.726;2022-09-27T16:48:24;97808.97;;;10.89;100.00
27984;BME280;15317;50.360;8.726;2022-09-27T16:52:29;97805.38;;;10.82;100.00
27984;BME280;15317;50.360;8.726;2022-09-27T16:56:32;97801.78;;;10.75;100.00
27984;BME280;15317;50.360;8.726;2022-09-27T17:00:36;97800.53;;;10.71;100.00
27984;BME280;15317;50.360;8.726;2022-09-27T17:04:40;97812.16;;;10.64;100.00
27984;BME280;15317;50.360;8.726;2022-09-27T17:08:42;97820.50;;;10.56;100.00
27984;BME280;15317;50.360;8.726;2022-09-27T17:12:44;97821.50;;;10.49;100.00
27984;BME280;15317;50.360;8.726;2022-09-27T17:16:48;97827.13;;;10.47;100.00
27984;BME280;15317;50.360;8.726;2022-09-27T17:20:51;97824.22;;;10.49;100.00
27984;BME280;15317;50.360;8.726;2022-09-27T17:24:53;97819.03;;;10.26;100.00
27984;BME280;15317;50.360;8.726;2022-09-27T17:28:55;97805.38;;;10.13;100.00
27984;BME280;15317;50.360;8.726;2022-09-27T17:32:59;97810.94;;;10.05;100.00
27984;BME280;15317;50.360;8.726;2022-09-27T17:37:01;97808.78;;;9.94;100.00
27984;BME280;15317;50.360;8.726;2022-09-27T17:41:04;97803.25;;;9.80;100.00
27984;BME280;15317;50.360;8.726;2022-09-27T17:45:08;97819.63;;;9.72;100.00
27984;BME280;15317;50.360;8.726;2022-09-27T17:49:12;97817.84;;;9.58;100.00
27984;BME280;15317;50.360;8.726;2022-09-27T17:53:32;97819.66;;;9.51;100.00
27984;BME280;15317;50.360;8.726;2022-09-27T17:57:34;97823.50;;;9.42;100.00
27984;BME280;15317;50.360;8.726;2022-09-27T18:01:37;97835.59;;;9.39;100.00
27984;BME280;15317;50.360;8.726;2022-09-27T18:05:41;97836.16;;;9.35;100.00
27984;BME280;15317;50.360;8.726;2022-09-27T18:09:43;97836.53;;;9.32;100.00
27984;BME280;15317;50.360;8.726;2022-09-27T18:13:47;97841.06;;;9.25;100.00
27984;BME280;15317;50.360;8.726;2022-09-27T18:17:49;97849.09;;;9.18;100.00
27984;BME280;15317;50.360;8.726;2022-09-27T18:21:53;97848.78;;;9.06;100.00
27984;BME280;15317;50.360;8.726;2022-09-27T18:25:55;97854.94;;;9.00;100.00
27984;BME280;15317;50.360;8.726;2022-09-27T18:29:57;97856.53;;;8.95;100.00
27984;BME280;15317;50.360;8.726;2022-09-27T18:34:01;97860.47;;;8.92;100.00
27984;BME280;15317;50.360;8.726;2022-09-27T18:38:05;97850.19;;;8.88;100.00
27984;BME280;15317;50.360;8.726;2022-09-27T18:42:07;97854.50;;;8.82;100.00
27984;BME280;15317;50.360;8.726;2022-09-27T18:46:11;97859.34;;;8.87;100.00
27984;BME280;15317;50.360;8.726;2022-09-27T18:50:13;97855.31;;;8.83;100.00
27984;BME280;15317;50.360;8.726;2022-09-27T18:54:18;97853.72;;;8.88;100.00
27984;BME280;15317;50.360;8.726;2022-09-27T18:58:20;97845.16;;;8.85;100.00
27984;BME280;15317;50.360;8.726;2022-09-27T19:02:22;97852.81;;;8.81;100.00
27984;BME280;15317;50.360;8.726;2022-09-27T19:06:24;97844.41;;;8.76;100.00
27984;BME280;15317;50.360;8.726;2022-09-27T19:10:28;97844.16;;;8.71;100.00
27984;BME280;15317;50.360;8.726;2022-09-27T19:14:30;97843.22;;;8.64;100.00
27984;BME280;15317;50.360;8.726;2022-09-27T19:18:32;97848.38;;;8.59;100.00
27984;BME280;15317;50.360;8.726;2022-09-27T19:22:34;97853.47;;;8.54;100.00
27984;BME280;15317;50.360;8.726;2022-09-27T19:26:37;97863.38;;;8.47;100.00
27984;BME280;15317;50.360;8.726;2022-09-27T19:30:40;97857.50;;;8.43;100.00
27984;BME280;15317;50.360;8.726;2022-09-27T19:34:42;97852.09;;;8.43;100.00
27984;BME280;15317;50.360;8.726;2022-09-27T19:38:44;97857.69;;;8.42;100.00
27984;BME280;15317;50.360;8.726;2022-09-27T19:42:51;97854.13;;;8.41;100.00
27984;BME280;15317;50.360;8.726;2022-09-27T19:46:53;97851.25;;;8.43;100.00
27984;BME280;15317;50.360;8.726;2022-09-27T19:50:55;97854.53;;;8.38;100.00
27984;BME280;15317;50.360;8.726;2022-09-27T19:54:57;97844.44;;;8.32;100.00
27984;BME280;15317;50.360;8.726;2022-09-27T19:59:01;97847.31;;;8.30;100.00
27984;BME280;15317;50.360;8.726;2022-09-27T20:03:03;97841.41;;;8.27;100.00
27984;BME280;15317;50.360;8.726;2022-09-27T20:07:05;97827.38;;;8.31;100.00
27984;BME280;15317;50.360;8.726;2022-09-27T20:11:09;97828.22;;;8.32;100.00
27984;BME280;15317;50.360;8.726;2022-09-27T20:15:12;97833.22;;;8.35;100.00
27984;BME280;15317;50.360;8.726;2022-09-27T20:19:14;97832.03;;;8.38;100.00
27984;BME280;15317;50.360;8.726;2022-09-27T20:23:17;97825.59;;;8.39;100.00
27984;BME280;15317;50.360;8.726;2022-09-27T20:27:19;97825.59;;;8.39;100.00
27984;BME280;15317;50.360;8.726;2022-09-27T20:31:26;97820.81;;;8.41;100.00
27984;BME280;15317;50.360;8.726;2022-09-27T20:35:29;97831.09;;;8.45;100.00
27984;BME280;15317;50.360;8.726;2022-09-27T20:39:31;97820.19;;;8.39;100.00
27984;BME280;15317;50.360;8.726;2022-09-27T20:43:33;97811.59;;;8.35;100.00
27984;BME280;15317;50.360;8.726;2022-09-27T20:47:36;97808.53;;;8.38;100.00
27984;BME280;15317;50.360;8.726;2022-09-27T20:51:40;97802.72;;;8.41;100.00
27984;BME280;15317;50.360;8.726;2022-09-27T20:55:43;97800.50;;;8.45;100.00
27984;BME280;15317;50.360;8.726;2022-09-27T20:59:45;97805.81;;;8.38;100.00
27984;BME280;15317;50.360;8.726;2022-09-27T21:03:52;97801.63;;;8.36;100.00
27984;BME280;15317;50.360;8.726;2022-09-27T21:07:54;97790.97;;;8.34;100.00
27984;BME280;15317;50.360;8.726;2022-09-27T21:11:57;97788.09;;;8.36;100.00
27984;BME280;15317;50.360;8.726;2022-09-27T21:16:00;97792.66;;;8.35;100.00
27984;BME280;15317;50.360;8.726;2022-09-27T21:20:04;97785.22;;;8.37;100.00
27984;BME280;15317;50.360;8.726;2022-09-27T21:24:06;97783.41;;;8.29;100.00
27984;BME280;15317;50.360;8.726;2022-09-27T21:28:08;97784.44;;;8.28;100.00
27984;BME280;15317;50.360;8.726;2022-09-27T21:32:10;97781.41;;;8.31;100.00
27984;BME280;15317;50.360;8.726;2022-09-27T21:36:13;97771.09;;;8.27;100.00
27984;BME280;15317;50.360;8.726;2022-09-27T21:40:15;97763.53;;;8.22;100.00
27984;BME280;15317;50.360;8.726;2022-09-27T21:44:17;97766.81;;;8.18;100.00
27984;BME280;15317;50.360;8.726;2022-09-27T21:48:19;97767.66;;;8.18;100.00
27984;BME280;15317;50.360;8.726;2022-09-27T21:52:23;97759.25;;;8.13;100.00
27984;BME280;15317;50.360;8.726;2022-09-27T21:56:28;97753.00;;;8.13;100.00